createdAt,value
2018-06-23T00:01:00.306Z,4.05
2018-06-23T00:03:28.387Z,3.37
2018-06-23T00:05:56.494Z,2.70
2018-06-23T00:08:25.374Z,3.87
2018-06-23T00:10:53.967Z,2.80
2018-06-23T00:13:22.449Z,3.47
2018-06-23T00:15:51.334Z,3.40
2018-06-23T00:18:19.444Z,2.90
2018-06-23T00:20:47.545Z,3.15
2018-06-23T00:23:15.963Z,3.10
2018-06-23T00:25:44.179Z,4.47
2018-06-23T00:28:12.289Z,2.65
2018-06-23T00:30:40.423Z,3.17
2018-06-23T00:33:08.533Z,3.00
2018-06-23T00:35:37.550Z,3.42
2018-06-23T00:38:05.655Z,3.75
2018-06-23T00:40:33.827Z,3.58
2018-06-23T00:43:01.952Z,2.80
2018-06-23T00:45:30.187Z,3.05
2018-06-23T00:47:58.299Z,2.50
2018-06-23T00:50:26.422Z,3.17
2018-06-23T00:52:54.545Z,3.65
2018-06-23T00:55:23.504Z,2.95
2018-06-23T00:57:51.615Z,3.65
2018-06-23T01:00:19.731Z,3.60
2018-06-23T01:02:47.836Z,3.62
2018-06-23T01:05:16.011Z,3.35
2018-06-23T01:07:44.112Z,3.95
2018-06-23T01:10:13.138Z,3.08
2018-06-23T01:12:42.589Z,3.25
2018-06-23T01:15:13.234Z,3.42
2018-06-23T01:17:42.088Z,3.90
2018-06-23T01:20:11.105Z,3.17
2018-06-23T01:22:40.422Z,3.35
2018-06-23T01:25:09.028Z,3.08
2018-06-23T01:27:40.698Z,3.62
2018-06-23T01:30:10.134Z,2.85
2018-06-23T01:32:39.418Z,3.15
2018-06-23T01:35:08.597Z,3.10
2018-06-23T01:37:37.467Z,3.10
2018-06-23T01:40:05.582Z,3.08
2018-06-23T01:42:34.480Z,3.05
2018-06-23T01:45:04.579Z,3.30
2018-06-23T01:47:32.711Z,3.50
2018-06-23T01:50:00.820Z,3.35
2018-06-23T01:52:28.929Z,2.70
2018-06-23T01:54:57.114Z,3.30
2018-06-23T01:57:25.996Z,3.42
2018-06-23T01:59:54.104Z,3.50
2018-06-23T02:02:22.427Z,3.35
2018-06-23T02:04:50.613Z,3.55
2018-06-23T02:07:18.716Z,2.97
2018-06-23T02:09:46.818Z,2.90
2018-06-23T02:12:14.913Z,3.70
2018-06-23T02:14:43.103Z,2.92
2018-06-23T02:17:31.337Z,3.22
2018-06-23T02:20:19.183Z,3.45
2018-06-23T02:23:04.903Z,3.08
2018-06-23T02:25:50.868Z,2.90
2018-06-23T02:28:37.671Z,2.85
2018-06-23T02:31:05.834Z,3.00
2018-06-23T02:33:33.944Z,3.47
2018-06-23T02:36:03.237Z,3.17
2018-06-23T02:38:32.106Z,3.17
2018-06-23T02:41:00.241Z,3.10
2018-06-23T02:43:28.338Z,2.45
2018-06-23T02:45:56.473Z,3.12
2018-06-23T02:48:24.583Z,2.85
2018-06-23T02:50:52.704Z,2.55
2018-06-23T02:53:21.647Z,3.05
2018-06-23T02:55:50.124Z,2.50
2018-06-23T02:58:18.206Z,2.58
2018-06-23T03:00:46.373Z,2.75
2018-06-23T03:03:14.487Z,2.50
2018-06-23T03:05:43.359Z,3.65
2018-06-23T03:08:11.558Z,3.40
2018-06-23T03:10:40.425Z,2.80
2018-06-23T03:13:08.774Z,2.53
2018-06-23T03:15:41.319Z,2.53
2018-06-23T03:18:09.546Z,2.80
2018-06-23T03:20:38.622Z,3.00
2018-06-23T03:23:06.729Z,2.47
2018-06-23T03:25:38.272Z,3.35
2018-06-23T03:28:06.367Z,3.60
2018-06-23T03:30:34.962Z,3.28
2018-06-23T03:33:03.816Z,2.70
2018-06-23T03:35:31.967Z,2.95
2018-06-23T03:38:00.065Z,2.97
2018-06-23T03:40:28.216Z,3.75
2018-06-23T03:42:56.320Z,2.90
2018-06-23T03:45:24.532Z,3.22
2018-06-23T03:47:52.633Z,3.72
2018-06-23T03:50:20.744Z,3.47
2018-06-23T03:52:49.100Z,3.72
2018-06-23T03:55:18.197Z,3.45
2018-06-23T03:57:47.276Z,3.80
2018-06-23T04:00:15.400Z,2.97
2018-06-23T04:02:43.515Z,2.72
2018-06-23T04:05:11.773Z,3.08
2018-06-23T04:07:39.871Z,3.00
2018-06-23T04:10:07.963Z,3.08
2018-06-23T04:12:36.332Z,2.90
2018-06-23T04:15:04.422Z,3.15
2018-06-23T04:17:32.588Z,4.55
2018-06-23T04:20:00.712Z,3.75
2018-06-23T04:22:28.941Z,3.83
2018-06-23T04:24:57.719Z,3.40
2018-06-23T04:27:27.347Z,4.28
2018-06-23T04:29:55.460Z,4.45
2018-06-23T04:32:23.567Z,3.30
2018-06-23T04:34:51.926Z,3.72
2018-06-23T04:37:20.026Z,4.57
2018-06-23T04:39:48.136Z,3.62
2018-06-23T04:42:16.241Z,2.40
2018-06-23T04:44:44.393Z,3.15
2018-06-23T04:47:13.323Z,2.70
2018-06-23T04:49:41.525Z,3.33
2018-06-23T04:52:09.636Z,3.15
2018-06-23T04:54:37.850Z,3.50
2018-06-23T04:57:05.980Z,4.15
2018-06-23T04:59:34.076Z,3.50
2018-06-23T05:02:02.182Z,3.53
2018-06-23T05:04:30.348Z,3.45
2018-06-23T05:06:58.485Z,3.12
2018-06-23T05:09:26.641Z,3.20
2018-06-23T05:11:55.644Z,3.10
2018-06-23T05:14:23.931Z,2.92
2018-06-23T05:16:52.040Z,2.90
2018-06-23T05:19:20.157Z,3.42
2018-06-23T05:21:48.267Z,2.97
2018-06-23T05:24:21.070Z,3.97
2018-06-23T05:26:50.023Z,3.72
2018-06-23T05:29:22.748Z,3.35
2018-06-23T05:31:50.865Z,3.80
2018-06-23T05:34:19.101Z,3.87
2018-06-23T05:36:48.126Z,3.10
2018-06-23T05:39:16.248Z,4.50
2018-06-23T05:41:44.383Z,4.65
2018-06-23T05:44:16.547Z,4.40
2018-06-23T05:46:44.780Z,6.00
2018-06-23T05:49:12.909Z,5.65
2018-06-23T05:51:41.754Z,5.32
2018-06-23T05:54:10.022Z,5.75
2018-06-23T05:56:38.127Z,5.12
2018-06-23T05:59:06.236Z,4.32
2018-06-23T06:01:35.345Z,6.75
2018-06-23T06:04:03.654Z,6.28
2018-06-23T06:06:31.757Z,5.05
2018-06-23T06:08:59.863Z,5.90
2018-06-23T06:11:27.984Z,6.35
2018-06-23T06:13:56.850Z,6.18
2018-06-23T06:16:25.676Z,6.35
2018-06-23T06:18:54.537Z,5.78
2018-06-23T06:21:22.707Z,5.87
2018-06-23T06:23:51.056Z,7.43
2018-06-23T06:26:19.114Z,6.15
2018-06-23T06:28:47.432Z,5.57
2018-06-23T06:31:15.623Z,6.65
2018-06-23T06:33:43.928Z,5.43
2018-06-23T06:36:12.409Z,7.25
2018-06-23T06:38:40.650Z,5.30
2018-06-23T06:41:08.774Z,6.78
2018-06-23T06:43:36.903Z,6.45
2018-06-23T06:46:05.799Z,5.15
2018-06-23T06:48:34.587Z,5.85
2018-06-23T06:51:03.266Z,5.80
2018-06-23T06:53:32.785Z,8.32
2018-06-23T06:56:00.958Z,7.22
2018-06-23T06:58:29.077Z,6.22
2018-06-23T07:00:57.191Z,6.40
2018-06-23T07:03:26.293Z,7.25
2018-06-23T07:05:54.358Z,7.25
2018-06-23T07:08:22.529Z,7.68
2018-06-23T07:10:51.419Z,6.82
2018-06-23T07:13:22.460Z,11.10
2018-06-23T07:15:50.577Z,7.28
2018-06-23T07:18:18.699Z,7.37
2018-06-23T07:20:46.816Z,7.37
2018-06-23T07:23:14.941Z,6.55
2018-06-23T07:25:43.063Z,6.90
2018-06-23T07:28:11.228Z,7.05
2018-06-23T07:30:40.243Z,7.28
2018-06-23T07:33:08.361Z,6.70
2018-06-23T07:35:37.360Z,6.28
2018-06-23T07:38:05.582Z,7.20
2018-06-23T07:40:33.711Z,7.30
2018-06-23T07:43:01.804Z,7.05
2018-06-23T07:45:30.039Z,7.15
2018-06-23T07:47:58.164Z,6.85
2018-06-23T07:50:26.282Z,7.45
2018-06-23T07:52:54.402Z,5.72
2018-06-23T07:55:22.513Z,5.62
2018-06-23T07:57:51.401Z,5.97
2018-06-23T08:00:19.509Z,5.70
2018-06-23T08:02:48.104Z,5.90
2018-06-23T08:05:16.271Z,6.57
2018-06-23T08:07:46.813Z,4.82
2018-06-23T08:10:14.980Z,5.00
2018-06-23T08:12:43.815Z,5.22
2018-06-23T08:18:12.990Z,5.03
2018-06-23T08:20:41.603Z,5.18
2018-06-23T08:23:09.804Z,5.40
2018-06-23T08:25:37.923Z,4.87
2018-06-23T08:28:07.138Z,5.70
2018-06-23T08:30:35.269Z,5.20
2018-06-23T08:33:06.249Z,6.03
2018-06-23T08:35:35.764Z,5.87
2018-06-23T08:38:03.882Z,5.87
2018-06-23T08:40:31.999Z,5.78
2018-06-23T08:43:00.557Z,5.60
2018-06-23T08:45:28.663Z,5.57
2018-06-23T08:47:56.793Z,4.72
2018-06-23T08:50:24.904Z,4.30
2018-06-23T08:52:53.054Z,4.97
2018-06-23T08:55:22.034Z,5.00
2018-06-23T08:57:50.259Z,4.85
2018-06-23T09:00:18.819Z,4.15
2018-06-23T09:02:47.029Z,3.80
2018-06-23T09:05:15.420Z,3.12
2018-06-23T09:07:44.991Z,4.47
2018-06-23T09:10:13.123Z,4.68
2018-06-23T09:12:41.956Z,4.57
2018-06-23T09:15:11.963Z,3.90
2018-06-23T09:17:40.898Z,4.00
2018-06-23T09:20:09.075Z,4.70
2018-06-23T09:22:37.200Z,4.47
2018-06-23T09:25:05.355Z,4.03
2018-06-23T09:27:33.463Z,3.40
2018-06-23T09:30:01.588Z,2.97
2018-06-23T09:32:29.733Z,3.80
2018-06-23T09:34:59.410Z,3.25
2018-06-23T09:37:28.304Z,2.90
2018-06-23T09:39:56.452Z,2.60
2018-06-23T09:42:24.603Z,2.72
2018-06-23T09:44:53.086Z,2.53
2018-06-23T09:47:22.495Z,2.65
2018-06-23T09:49:50.658Z,3.95
2018-06-23T09:52:18.794Z,2.65
2018-06-23T09:54:48.380Z,2.85
2018-06-23T09:57:17.676Z,2.55
2018-06-23T09:59:47.458Z,2.17
2018-06-23T10:02:16.759Z,2.50
2018-06-23T10:04:45.156Z,2.35
2018-06-23T10:07:14.070Z,2.65
2018-06-23T10:09:42.290Z,3.25
2018-06-23T10:12:12.367Z,3.40
2018-06-23T10:14:41.544Z,2.00
2018-06-23T10:17:09.684Z,2.62
2018-06-23T10:19:37.787Z,2.55
2018-06-23T10:22:05.942Z,2.92
2018-06-23T10:24:37.332Z,3.42
2018-06-23T10:27:05.826Z,2.35
2018-06-23T10:29:34.038Z,3.10
2018-06-23T10:32:02.199Z,2.58
2018-06-23T10:34:30.432Z,2.78
2018-06-23T10:36:59.308Z,2.70
2018-06-23T10:39:27.432Z,2.78
2018-06-23T10:41:55.581Z,2.80
2018-06-23T10:44:24.235Z,2.35
2018-06-23T10:46:52.371Z,3.33
2018-06-23T10:49:20.490Z,3.05
2018-06-23T10:51:48.832Z,3.60
2018-06-23T10:54:18.004Z,3.90
2018-06-23T10:56:46.116Z,3.87
2018-06-23T10:59:15.000Z,4.80
2018-06-23T11:01:43.117Z,4.35
2018-06-23T11:04:13.302Z,4.18
2018-06-23T11:06:44.598Z,3.67
2018-06-23T11:09:14.040Z,4.20
2018-06-23T11:11:43.670Z,3.60
2018-06-23T11:14:11.854Z,3.95
2018-06-23T11:16:40.708Z,4.50
2018-06-23T11:19:08.807Z,4.75
2018-06-23T11:21:37.758Z,4.07
2018-06-23T11:24:06.011Z,4.60
2018-06-23T11:26:34.123Z,4.32
2018-06-23T11:29:02.246Z,5.82
2018-06-23T11:31:31.121Z,4.35
2018-06-23T11:34:00.287Z,4.95
2018-06-23T11:36:30.109Z,4.85
2018-06-23T11:38:59.741Z,4.70
2018-06-23T11:41:27.875Z,3.70
2018-06-23T11:43:56.059Z,3.15
2018-06-23T11:46:25.155Z,3.47
2018-06-23T11:48:54.179Z,3.78
2018-06-23T11:51:22.467Z,3.97
2018-06-23T11:53:52.042Z,5.00
2018-06-23T11:56:21.524Z,4.35
2018-06-23T11:58:50.109Z,4.43
2018-06-23T12:01:18.983Z,3.70
2018-06-23T12:03:47.407Z,5.40
2018-06-23T12:06:16.607Z,4.05
2018-06-23T12:08:45.512Z,4.93
2018-06-23T12:11:13.632Z,4.78
2018-06-23T12:13:43.989Z,4.22
2018-06-23T12:16:12.505Z,3.70
2018-06-23T12:18:40.603Z,4.68
2018-06-23T12:21:09.569Z,3.17
2018-06-23T12:23:37.700Z,4.53
2018-06-23T12:26:06.652Z,4.32
2018-06-23T12:28:34.765Z,3.78
2018-06-23T12:31:03.678Z,3.78
2018-06-23T12:33:32.557Z,4.25
2018-06-23T12:36:01.463Z,4.40
2018-06-23T12:38:32.581Z,4.03
2018-06-23T12:41:00.689Z,4.65
2018-06-23T12:43:28.795Z,4.03
2018-06-23T12:45:57.303Z,3.70
2018-06-23T12:48:25.467Z,2.87
2018-06-23T12:50:53.545Z,3.15
2018-06-23T12:53:21.655Z,4.30
2018-06-23T12:55:49.978Z,3.37
2018-06-23T12:58:18.105Z,4.00
2018-06-23T13:00:46.256Z,3.70
2018-06-23T13:03:14.936Z,3.75
2018-06-23T13:05:43.047Z,3.12
2018-06-23T13:08:11.177Z,3.40
2018-06-23T13:10:40.093Z,3.80
2018-06-23T13:13:08.213Z,3.00
2018-06-23T13:15:36.461Z,4.37
2018-06-23T13:18:04.589Z,3.50
2018-06-23T13:20:35.191Z,2.63
2018-06-23T13:23:03.307Z,3.40
2018-06-23T13:25:31.549Z,3.97
2018-06-23T13:27:59.681Z,3.80
2018-06-23T13:30:29.084Z,3.33
2018-06-23T13:32:57.940Z,4.23
2018-06-23T13:35:31.310Z,3.67
2018-06-23T13:37:59.534Z,3.10
2018-06-23T13:40:32.082Z,3.70
2018-06-23T13:43:01.088Z,2.70
2018-06-23T13:45:30.062Z,3.27
2018-06-23T13:48:00.429Z,3.20
2018-06-23T13:50:28.538Z,3.60
2018-06-23T13:52:57.425Z,3.30
2018-06-23T13:55:25.878Z,3.20
2018-06-23T13:57:55.112Z,3.13
2018-06-23T14:00:23.391Z,3.33
2018-06-23T14:02:51.495Z,3.50
2018-06-23T14:05:19.768Z,2.53
2018-06-23T14:07:47.848Z,2.90
2018-06-23T14:10:15.939Z,2.33
2018-06-23T14:12:44.057Z,3.10
2018-06-23T14:15:12.277Z,2.30
2018-06-23T14:17:40.404Z,2.60
2018-06-23T14:20:08.493Z,3.07
2018-06-23T14:22:36.594Z,3.70
2018-06-23T14:25:05.542Z,2.60
2018-06-23T14:27:33.683Z,3.30
2018-06-23T14:30:01.784Z,3.00
2018-06-23T14:32:30.114Z,2.97
2018-06-23T14:34:58.278Z,1.83
2018-06-23T14:37:26.759Z,2.47
2018-06-23T14:39:55.649Z,2.43
2018-06-23T14:42:23.778Z,3.33
2018-06-23T14:44:52.677Z,2.50
2018-06-23T14:47:22.182Z,2.13
2018-06-23T14:49:51.153Z,2.17
2018-06-23T14:52:19.263Z,1.60
2018-06-23T14:54:47.373Z,2.10
2018-06-23T14:57:16.253Z,2.67
2018-06-23T14:59:46.020Z,2.03
2018-06-23T15:02:14.133Z,3.10
2018-06-23T15:04:42.273Z,2.00
2018-06-23T15:07:11.292Z,1.83
2018-06-23T15:09:56.068Z,2.70
2018-06-23T15:12:47.512Z,2.17
2018-06-23T15:15:16.571Z,2.50
2018-06-23T15:17:44.647Z,2.23
2018-06-23T15:20:13.174Z,1.60
2018-06-23T15:22:42.814Z,1.60
2018-06-23T15:25:10.929Z,2.70
2018-06-23T15:27:39.045Z,2.03
2018-06-23T15:30:07.972Z,2.37
2018-06-23T15:32:36.112Z,2.00
2018-06-23T15:35:04.230Z,2.20
2018-06-23T15:37:33.140Z,1.70
2018-06-23T15:40:01.524Z,1.60
2018-06-23T15:42:30.375Z,1.60
2018-06-23T15:44:58.540Z,2.13
2018-06-23T15:47:27.735Z,1.90
2018-06-23T15:49:55.814Z,2.10
2018-06-23T15:52:23.919Z,2.13
2018-06-23T15:54:52.953Z,1.70
2018-06-23T15:57:21.057Z,1.83
2018-06-23T15:59:49.172Z,2.07
2018-06-23T16:02:18.164Z,1.63
2018-06-23T16:04:46.391Z,1.70
2018-06-23T16:07:14.496Z,1.77
2018-06-23T16:09:43.362Z,2.07
2018-06-23T16:12:11.476Z,2.20
2018-06-23T16:14:50.499Z,1.47
2018-06-23T16:17:20.727Z,1.83
2018-06-23T16:19:48.813Z,2.20
2018-06-23T16:22:17.121Z,2.10
2018-06-23T16:24:45.895Z,2.03
2018-06-23T16:27:14.012Z,2.73
2018-06-23T16:29:42.947Z,2.33
2018-06-23T16:32:11.121Z,2.50
2018-06-23T16:34:39.272Z,2.33
2018-06-23T16:37:08.125Z,2.50
2018-06-23T16:39:36.237Z,3.27
2018-06-23T16:42:04.361Z,2.13
2018-06-23T16:44:32.533Z,3.00
2018-06-23T16:47:00.653Z,2.20
2018-06-23T16:49:28.745Z,2.80
2018-06-23T16:51:56.836Z,2.20
2018-06-23T16:54:25.015Z,3.10
2018-06-23T16:56:53.133Z,2.13
2018-06-23T16:59:21.307Z,2.43
2018-06-23T17:01:50.184Z,2.33
2018-06-23T17:04:20.214Z,2.63
2018-06-23T17:06:48.295Z,1.70
2018-06-23T17:09:16.402Z,2.50
2018-06-23T17:11:44.516Z,2.00
2018-06-23T17:14:12.668Z,2.90
2018-06-23T17:16:40.777Z,2.47
2018-06-23T17:19:08.891Z,2.67
2018-06-23T17:21:37.008Z,3.87
2018-06-23T17:24:05.172Z,2.87
2018-06-23T17:26:33.278Z,3.30
2018-06-23T17:29:01.384Z,2.10
2018-06-23T17:31:30.221Z,2.27
2018-06-23T17:34:04.289Z,2.97
2018-06-23T17:36:32.411Z,3.10
2018-06-23T17:39:01.414Z,2.40
2018-06-23T17:41:29.546Z,2.70
2018-06-23T17:43:58.505Z,2.70
2018-06-23T17:46:26.627Z,2.60
2018-06-23T17:48:57.115Z,3.40
2018-06-23T17:51:25.363Z,2.77
2018-06-23T17:53:54.293Z,2.60
2018-06-23T17:56:22.431Z,2.33
2018-06-23T17:58:50.663Z,2.30
2018-06-23T18:01:18.924Z,2.30
2018-06-23T18:03:47.034Z,2.03
2018-06-23T18:06:15.934Z,3.17
2018-06-23T18:08:44.023Z,2.40
2018-06-23T18:11:13.911Z,2.08
2018-06-23T18:13:45.660Z,2.20
2018-06-23T18:16:13.910Z,2.40
2018-06-23T18:18:42.028Z,2.37
2018-06-23T18:21:10.150Z,2.25
2018-06-23T18:23:38.348Z,2.12
2018-06-23T18:26:06.475Z,2.10
2018-06-23T18:28:34.665Z,2.50
2018-06-23T18:31:03.205Z,2.30
2018-06-23T18:33:31.306Z,1.70
2018-06-23T18:36:00.347Z,1.90
2018-06-23T18:38:28.469Z,1.52
2018-06-23T18:40:56.641Z,1.83
2018-06-23T18:43:24.768Z,1.17
2018-06-23T18:45:53.133Z,1.50
2018-06-23T18:48:21.259Z,3.08
2018-06-23T18:50:50.328Z,2.62
2018-06-23T18:53:19.199Z,2.20
2018-06-23T18:55:47.312Z,2.05
2018-06-23T18:58:15.442Z,2.80
2018-06-23T19:00:44.483Z,1.90
2018-06-23T19:03:12.410Z,2.62
2018-06-23T19:05:40.520Z,1.90
2018-06-23T19:08:08.646Z,2.37
2018-06-23T19:10:36.797Z,1.58
2018-06-23T19:13:04.919Z,2.50
2018-06-23T19:15:33.155Z,1.98
2018-06-23T19:18:01.846Z,2.20
2018-06-23T19:20:29.961Z,2.30
2018-06-23T19:22:58.223Z,2.00
2018-06-23T19:25:29.977Z,2.78
2018-06-23T19:27:59.382Z,2.70
2018-06-23T19:30:27.512Z,2.80
2018-06-23T19:32:55.630Z,2.80
2018-06-23T19:35:24.459Z,2.55
2018-06-23T19:37:54.093Z,2.25
2018-06-23T19:40:22.211Z,2.50
2018-06-23T19:42:51.088Z,1.62
2018-06-23T19:45:19.254Z,2.60
2018-06-23T19:47:48.228Z,2.90
2018-06-23T19:50:16.364Z,2.30
2018-06-23T19:52:44.878Z,2.85
2018-06-23T19:55:13.990Z,2.53
2018-06-23T19:57:42.120Z,2.78
2018-06-23T20:00:10.217Z,2.60
2018-06-23T20:02:38.348Z,3.00
2018-06-23T20:05:11.186Z,2.40
2018-06-23T20:07:40.368Z,2.87
2018-06-23T20:10:08.922Z,2.92
2018-06-23T20:12:37.044Z,2.97
2018-06-23T20:15:05.163Z,3.12
2018-06-23T20:17:33.657Z,2.80
2018-06-23T20:20:01.768Z,3.45
2018-06-23T20:22:29.900Z,2.72
2018-06-23T20:24:58.014Z,3.72
2018-06-23T20:27:26.963Z,3.65
2018-06-23T20:29:55.075Z,2.60
2018-06-23T20:32:24.068Z,3.30
2018-06-23T20:34:52.148Z,3.12
2018-06-23T20:37:20.282Z,2.40
2018-06-23T20:39:48.417Z,2.65
2018-06-23T20:42:17.296Z,3.00
2018-06-23T20:44:45.456Z,3.28
2018-06-23T20:47:13.615Z,2.60
2018-06-23T20:49:41.721Z,2.30
2018-06-23T20:52:09.834Z,3.65
2018-06-23T20:54:40.018Z,3.72
2018-06-23T20:57:08.144Z,3.62
2018-06-23T20:59:36.294Z,4.12
2018-06-23T21:02:04.724Z,4.85
2018-06-23T21:04:32.900Z,3.87
2018-06-23T21:07:01.019Z,6.07
2018-06-23T21:09:29.131Z,4.00
2018-06-23T21:11:57.391Z,4.22
2018-06-23T21:14:26.712Z,4.85
2018-06-23T21:16:54.851Z,4.50
2018-06-23T21:19:23.746Z,5.03
2018-06-23T21:21:53.063Z,4.97
2018-06-23T21:24:21.170Z,4.97
2018-06-23T21:26:50.246Z,5.35
2018-06-23T21:29:18.363Z,4.45
2018-06-23T21:31:47.034Z,4.57
2018-06-23T21:35:38.342Z,4.90
2018-06-23T21:38:07.467Z,4.47
2018-06-23T21:40:38.047Z,4.55
2018-06-23T21:43:08.275Z,4.72
2018-06-23T21:45:37.384Z,4.30
2018-06-23T21:48:08.076Z,4.30
2018-06-23T21:50:36.202Z,4.35
2018-06-23T21:53:05.188Z,3.87
2018-06-23T21:55:33.305Z,4.68
2018-06-23T21:58:01.594Z,4.43
2018-06-23T22:00:30.051Z,4.80
2018-06-23T22:02:59.231Z,4.45
2018-06-23T22:05:28.302Z,4.50
2018-06-23T22:07:57.090Z,4.30
2018-06-23T22:10:25.894Z,5.95
2018-06-23T22:12:55.189Z,4.32
2018-06-23T22:15:23.523Z,4.70
2018-06-23T22:17:52.599Z,4.80
2018-06-23T22:20:20.725Z,4.50
2018-06-23T22:22:48.839Z,4.55
2018-06-23T22:25:17.728Z,4.90
2018-06-23T22:27:45.851Z,5.25
2018-06-23T22:30:13.971Z,5.75
2018-06-23T22:32:43.499Z,5.18
2018-06-23T22:35:12.434Z,6.30
2018-06-23T22:37:40.553Z,4.93
2018-06-23T22:40:08.674Z,4.37
2018-06-23T22:42:38.195Z,5.05
2018-06-23T22:45:06.903Z,4.20
2018-06-23T22:47:35.788Z,4.35
2018-06-23T22:50:04.762Z,4.30
2018-06-23T22:52:32.904Z,4.20
2018-06-23T22:55:03.861Z,5.28
2018-06-23T22:57:32.152Z,4.30
2018-06-23T23:00:01.021Z,4.57
2018-06-23T23:02:29.122Z,5.80
2018-06-23T23:05:00.062Z,5.32
2018-06-23T23:07:28.235Z,5.00
2018-06-23T23:09:56.428Z,4.85
2018-06-23T23:12:24.689Z,4.37
2018-06-23T23:14:52.857Z,4.75
2018-06-23T23:17:20.964Z,4.90
2018-06-23T23:19:49.832Z,4.03
2018-06-23T23:22:20.003Z,5.22
2018-06-23T23:24:50.891Z,4.43
2018-06-23T23:27:19.033Z,4.65
2018-06-23T23:29:47.120Z,4.35
2018-06-23T23:32:15.650Z,4.93
2018-06-23T23:34:44.036Z,5.28
2018-06-23T23:37:12.135Z,5.03
2018-06-23T23:39:40.238Z,5.20
2018-06-23T23:42:09.190Z,5.80
2018-06-23T23:44:39.008Z,4.57
2018-06-23T23:47:07.238Z,3.95
2018-06-23T23:49:35.341Z,4.70
2018-06-23T23:52:03.482Z,5.65
2018-06-23T23:54:33.697Z,4.82
2018-06-23T23:57:01.790Z,5.30
2018-06-23T23:59:29.896Z,5.43
